• Join FlightAware (Why Join?)
  • Login
  • US Flag 
05:13PM EDT


 

Airport Tracker/Info


-or-


 

Live Flight TrackerFlight Track Log ✈ CLX861 ✈ 21-Apr-2013 ✈ KMIA - KIAH

Flight Track Log - Related Links

Times and Time Zones

All times are in EDT time to prevent confusion due to time zone crossing. See the CLX861 flight status page for this flight to view local times or setup timezone preferences in your user account.

Time Position Orientation Groundspeed Altitude Reporting Facility
EDT Latitude Longitude Course Direction KTS MPH feet Rate Location/Type
03:31AM 25.7880 -80.2710 90° East 156 180 800  Level FlightAware
03:32AM 25.7930 -80.2470 77° East 160 184 1,700 1,380 Climbing FlightAware
03:32AM 25.7980 -80.2240 76° East 192 221 2,100 900 Climbing FlightAware
03:32AM 25.8010 -80.2100 77° East 212 244 2,300 1,200 Climbing FlightAware
03:33AM 25.8070 -80.1810 77° East 242 278 2,900 1,920 Climbing FlightAware
03:33AM 25.8220 -80.1440 66° East 262 302 4,100 2,760 Climbing FlightAware
03:34AM 25.8400 -80.1080 61° Northeast 269 310 5,700 2,940 Climbing FlightAware
03:34AM 25.8600 -80.0830 48° Northeast 277 319 6,800 2,820 Climbing FlightAware
03:34AM 25.8780 -80.0790 11° North 273 314 7,600 2,700 Climbing FlightAware
03:35AM 25.9060 -80.0910 339° North 274 315 8,600 2,580 Climbing FlightAware
03:35AM 25.9290 -80.1270 305° West 290 334 10,000 2,040 Climbing FlightAware
03:36AM 25.9640 -80.1860 303° West 328 377 11,200 1,440 Climbing FlightAware
03:37AM 26.0000 -80.2470 303° West 368 423 12,100 1,620 Climbing FlightAware
03:38AM 26.0450 -80.3210 304° West 393 452 13,500 2,100 Climbing FlightAware
03:38AM 26.0910 -80.3870 308° West 407 468 15,100 2,400 Climbing FlightAware
03:39AM 26.1380 -80.4500 310° West 412 474 16,700 2,280 Climbing FlightAware
03:40AM 26.1900 -80.5200 310° West 416 479 18,200 2,100 Climbing FlightAware
03:40AM 26.2450 -80.5950 309° West 431 496 19,700 1,920 Climbing FlightAware
03:41AM 26.3020 -80.6720 310° West 438 504 21,100 1,860 Climbing FlightAware
03:42AM 26.3460 -80.7500 302° West 434 499 22,400 1,920 Climbing FlightAware
03:42AM 26.3750 -80.8340 291° West 436 502 23,700 1,800 Climbing FlightAware
03:43AM 26.4040 -80.9200 291° West 440 506 24,800 1,620 Climbing FlightAware
03:44AM 26.4360 -81.0170 290° West 448 516 26,000 1,440 Climbing FlightAware
03:45AM 26.4690 -81.1180 290° West 457 526 27,000 1,320 Climbing FlightAware
03:45AM 26.4980 -81.2060 290° West 466 536 27,900 1,680 Climbing FlightAware
03:46AM 26.5270 -81.2960 290° West 457 526 29,300 2,160 Climbing FlightAware
03:47AM 26.5590 -81.3930 290° West 449 517 31,000 1,860 Climbing FlightAware
03:47AM 26.5880 -81.4830 290° West 454 522 32,000 1,620 Climbing FlightAware
03:48AM 26.6210 -81.5840 290° West 458 527 33,300 1,740 Climbing FlightAware
03:49AM 26.6510 -81.6710 291° West 454 522 34,500 1,860 Climbing FlightAware
03:49AM 26.6800 -81.7570 291° West 443 510 35,800 1,020 Climbing FlightAware
03:50AM 26.7130 -81.8530 291° West 426 490 36,000 120 Climbing FlightAware
03:51AM 26.7400 -81.9340 290° West 423 487 36,000  Level FlightAware
03:52AM 26.7700 -82.0260 290° West 425 489 36,000  Level FlightAware
03:52AM 26.7950 -82.1000 291° West 425 489 36,000  Level FlightAware
03:54AM 26.8580 -82.2900 290° West 427 491 36,000  Level FlightAware
03:55AM 26.9070 -82.4380 290° West 425 489 36,000  Level FlightAware
03:56AM 26.9420 -82.5420 291° West 425 489 36,000  Level FlightAware
03:56AM 26.9690 -82.6260 290° West 426 490 36,000  Level FlightAware
03:57AM 26.9950 -82.7050 290° West 427 491 36,000  Level FlightAware
03:58AM 27.0250 -82.7980 290° West 427 491 36,000  Level FlightAware
03:58AM 27.0520 -82.8790 291° West 426 490 36,000  Level FlightAware
03:59AM 27.0760 -82.9550 290° West 426 490 36,000  Level FlightAware
04:00AM 27.1100 -83.0590 290° West 425 489 36,000  Level FlightAware
04:01AM 27.1380 -83.1460 290° West 424 488 36,000  Level FlightAware
04:01AM 27.1670 -83.2350 290° West 421 484 36,000  Level FlightAware
04:02AM 27.1980 -83.3310 290° West 419 482 36,000  Level FlightAware
04:03AM 27.2230 -83.4070 290° West 418 481 36,000  Level FlightAware
04:03AM 27.2510 -83.4940 290° West 418 481 36,000  Level FlightAware
04:04AM 27.2820 -83.5920 290° West 420 483 36,000  Level FlightAware
04:05AM 27.3140 -83.6910 290° West 419 482 36,000  Level FlightAware
04:06AM 27.3340 -83.7540 290° West 420 483 36,000  Level FlightAware
04:06AM 27.3650 -83.8580 289° West 420 483 36,000  Level FlightAware
04:07AM 27.4050 -83.9780 291° West 421 484 36,000  Level FlightAware
04:08AM 27.4290 -84.0550 289° West 419 482 36,000  Level FlightAware
04:09AM 27.4640 -84.1660 290° West 420 483 36,000  Level FlightAware
04:09AM 27.4900 -84.2480 290° West 420 483 36,000  Level FlightAware
04:10AM 27.5150 -84.3270 290° West 418 481 36,000  Level FlightAware
04:11AM 27.5440 -84.4210 289° West 416 479 36,000  Level FlightAware
04:12AM 27.5700 -84.5020 290° West 415 478 36,000  Level FlightAware
04:12AM 27.5950 -84.5830 289° West 414 476 36,000  Level FlightAware
04:13AM 27.6230 -84.6730 289° West 413 475 36,000  Level FlightAware
04:14AM 27.6580 -84.7880 289° West 411 473 36,000  Level FlightAware
04:14AM 27.6780 -84.8520 289° West 411 473 36,000  Level FlightAware
04:15AM 27.7080 -84.9480 289° West 410 472 36,000  Level FlightAware
04:16AM 27.7340 -85.0320 289° West 411 473 36,000  Level FlightAware
04:17AM 27.7590 -85.1150 289° West 411 473 36,000  Level FlightAware
04:17AM 27.7880 -85.2080 289° West 410 472 36,000  Level FlightAware
04:18AM 27.8080 -85.2730 289° West 410 472 36,000  Level FlightAware
04:19AM 27.8320 -85.3580 288° West 410 472 36,000  Level FlightAware
04:19AM 27.8640 -85.4570 290° West 405 466 36,000  Level FlightAware
04:20AM 27.8910 -85.5490 288° West 403 464 36,000  Level FlightAware
04:21AM 27.9150 -85.6260 289° West 402 463 36,000  Level FlightAware
04:22AM 27.9440 -85.7280 288° West 402 463 36,000  Level FlightAware
04:22AM 27.9640 -85.7960 288° West 402 463 36,000  Level FlightAware
04:23AM 27.9830 -85.8640 288° West 402 463 36,000  Level FlightAware
04:24AM 28.0030 -85.9320 288° West 402 463 36,000  Level FlightAware
04:25AM 28.0270 -86.0170 288° West 402 463 36,000  Level FlightAware
04:25AM 28.0470 -86.0850 288° West 402 463 36,000  Level FlightAware
04:26AM 28.0660 -86.1530 288° West 402 463 36,000  Level FlightAware
04:27AM 28.0860 -86.2210 288° West 402 463 36,000  Level FlightAware
04:27AM 28.1060 -86.2900 288° West 402 463 36,000  Level FlightAware
04:28AM 28.1300 -86.3750 288° West 402 463 36,000  Level FlightAware
04:29AM 28.1490 -86.4430 288° West 402 463 36,000  Level FlightAware
04:29AM 28.1690 -86.5110 288° West 402 463 36,000  Level FlightAware
04:30AM 28.1890 -86.5790 288° West 402 463 36,000  Level FlightAware
04:31AM 28.2080 -86.6480 287° West 402 463 36,000  Level FlightAware
04:31AM 28.2753 -86.8306 287° West 397 457 36,000 120 Level Jacksonville Center
04:32AM 28.3053 -86.9425 287° West 389 448 36,200 720 Climbing Jacksonville Center
04:33AM 28.3431 -87.0667 289° West 389 448 37,500 840 Climbing Jacksonville Center
04:34AM 28.3747 -87.1811 287° West 389 448 37,900 180 Climbing Jacksonville Center
04:35AM 28.4061 -87.2981 287° West 398 458 37,900  Level Jacksonville Center
04:37AM 28.4628 -87.4900 289° West 396 456 38,000  Climbing Houston Center
04:38AM 28.4967 -87.6086 288° West 397 457 38,000  Level Houston Center
04:39AM 28.5308 -87.7281 288° West 399 459 38,000  Level Houston Center
04:40AM 28.5633 -87.8467 287° West 396 456 38,000  Level Houston Center
04:41AM 28.5964 -87.9672 287° West 400 460 38,000  Level Houston Center
04:42AM 28.6292 -88.0839 288° West 396 456 38,000  Level Houston Center
04:47AM 28.7690 -88.7180 288° West 394 453 38,000  Level FlightAware
04:48AM 28.7840 -88.7900 283° West 394 453 38,000  Level FlightAware
04:48AM 28.7970 -88.8590 282° West 394 453 38,000  Level FlightAware
04:49AM 28.8110 -88.9280 283° West 394 453 38,000  Level FlightAware
04:50AM 28.8250 -88.9970 283° West 394 453 38,000  Level FlightAware
04:50AM 28.8430 -89.0830 283° West 394 453 38,000  Level FlightAware
04:51AM 28.8570 -89.1520 283° West 394 453 38,000  Level FlightAware
04:52AM 28.8710 -89.2210 283° West 394 453 38,000  Level FlightAware
04:52AM 28.8850 -89.2900 283° West 394 453 38,000  Level FlightAware
04:53AM 28.8980 -89.3590 282° West 394 453 38,000  Level FlightAware
04:54AM 28.9120 -89.4280 283° West 394 453 38,000  Level FlightAware
04:55AM 28.9300 -89.5140 283° West 394 453 38,000  Level FlightAware
04:55AM 28.9440 -89.5830 283° West 394 453 38,000  Level FlightAware
04:56AM 28.9580 -89.6520 283° West 394 453 38,000  Level FlightAware
04:57AM 28.9720 -89.7210 283° West 394 453 38,000 -60 Level FlightAware
04:58AM 29.0392 -90.0117 283° West 383 441 37,900 -60 Descending Houston Center
04:59AM 29.0636 -90.1325 283° West 388 447 37,900  Level Houston Center
05:00AM 29.0883 -90.2506 284° West 385 443 37,900  Level Houston Center
05:01AM 29.1111 -90.3681 283° West 382 440 38,000  Climbing Houston Center
05:06AM 29.2489 -91.0427 283° West 384 442 38,000  Level FlightAware ADS-B
05:07AM 29.2610 -91.1035 283° West 384 442 38,000  Level FlightAware ADS-B
05:07AM 29.2731 -91.1643 283° West 384 442 38,000  Level FlightAware ADS-B
05:08AM 29.2851 -91.2241 283° West 384 442 38,000  Level FlightAware ADS-B
05:08AM 29.2975 -91.2864 283° West 383 441 38,000  Level FlightAware ADS-B
05:09AM 29.3117 -91.3581 283° West 382 440 38,000  Level FlightAware ADS-B
05:10AM 29.3289 -91.4447 283° West 380 437 38,000  Level FlightAware ADS-B
05:10AM 29.3405 -91.5036 283° West 378 435 38,000  Level FlightAware ADS-B
05:11AM 29.3522 -91.5629 283° West 378 435 38,000  Level FlightAware ADS-B
05:11AM 29.3637 -91.6222 283° West 376 433 38,000  Level FlightAware ADS-B
05:12AM 29.3751 -91.6809 283° West 375 432 38,000  Level FlightAware ADS-B
05:13AM 29.3931 -91.7723 283° West 375 432 38,000  Level FlightAware ADS-B
05:13AM 29.4045 -91.8311 283° West 376 433 38,000  Level FlightAware ADS-B
05:14AM 29.4200 -91.9113 283° West 376 433 38,000  Level FlightAware ADS-B
05:14AM 29.4314 -91.9706 282° West 376 433 38,000  Level FlightAware ADS-B
05:15AM 29.4429 -92.0308 282° West 375 432 38,000  Level FlightAware ADS-B
05:15AM 29.4545 -92.0906 283° West 374 430 38,000  Level FlightAware ADS-B
05:16AM 29.4658 -92.1494 282° West 373 429 38,000  Level FlightAware ADS-B
05:16AM 29.4770 -92.2077 282° West 372 428 38,000  Level FlightAware ADS-B
05:17AM 29.4880 -92.2659 282° West 372 428 38,000  Level FlightAware ADS-B
05:17AM 29.4991 -92.3241 282° West 372 428 38,000  Level FlightAware ADS-B
05:18AM 29.5102 -92.3828 282° West 372 428 38,000  Level FlightAware ADS-B
05:18AM 29.5213 -92.4412 282° West 372 428 38,000  Level FlightAware ADS-B
05:19AM 29.5323 -92.4994 282° West 370 426 38,000  Level FlightAware ADS-B
05:19AM 29.5433 -92.5580 282° West 369 425 38,000  Level FlightAware ADS-B
05:20AM 29.5541 -92.6158 282° West 367 422 38,000  Level FlightAware ADS-B
05:20AM 29.5651 -92.6740 282° West 365 420 38,000  Level FlightAware ADS-B
05:21AM 29.5757 -92.7313 282° West 362 417 38,000  Level FlightAware ADS-B
05:21AM 29.5866 -92.7891 282° West 360 414 38,000  Level FlightAware ADS-B
05:22AM 29.5971 -92.8455 282° West 358 412 38,000  Level FlightAware ADS-B
05:22AM 29.6075 -92.9011 282° West 358 412 38,000  Level FlightAware ADS-B
05:23AM 29.6177 -92.9569 282° West 358 412 38,000  Level FlightAware ADS-B
05:23AM 29.6280 -93.0128 282° West 357 411 38,000  Level FlightAware ADS-B
05:24AM 29.6385 -93.0697 282° West 357 411 38,000  Level FlightAware ADS-B
05:24AM 29.6487 -93.1251 282° West 356 410 38,000  Level FlightAware ADS-B
05:25AM 29.6592 -93.1829 282° West 355 409 38,000  Level FlightAware ADS-B
05:25AM 29.6695 -93.2396 282° West 356 410 38,000 -300 Level FlightAware ADS-B
05:26AM 29.6796 -93.2948 282° West 342 394 37,700 -1,380 Descending FlightAware ADS-B
05:26AM 29.6895 -93.3486 282° West 340 391 36,600 -2,220 Descending FlightAware ADS-B
05:27AM 29.6991 -93.4016 282° West 337 388 35,500 -2,340 Descending FlightAware ADS-B
05:27AM 29.7087 -93.4546 282° West 338 389 34,300 -2,460 Descending FlightAware ADS-B
05:28AM 29.7185 -93.5082 282° West 341 392 33,000 -2,580 Descending FlightAware ADS-B
05:28AM 29.7280 -93.5620 282° West 344 396 31,700 -2,640 Descending FlightAware ADS-B
05:29AM 29.7378 -93.6169 282° West 346 398 30,400 -2,760 Descending FlightAware ADS-B
05:29AM 29.7477 -93.6724 282° West 354 407 28,900 -2,700 Descending FlightAware ADS-B
05:30AM 29.7577 -93.7279 282° West 352 405 27,700 -2,460 Descending FlightAware ADS-B
05:30AM 29.7672 -93.7809 282° West 351 404 26,500 -2,340 Descending FlightAware ADS-B
05:31AM 29.7755 -93.8286 281° West 345 397 25,600 -2,040 Descending FlightAware ADS-B
05:31AM 29.7852 -93.8822 282° West 337 388 24,600 -1,800 Descending FlightAware ADS-B
05:32AM 29.7943 -93.9336 282° West 327 376 23,800 -1,500 Descending FlightAware ADS-B
05:32AM 29.8033 -93.9845 282° West 317 365 23,100 -1,500 Descending FlightAware ADS-B
05:33AM 29.8121 -94.0340 282° West 309 356 22,300 -1,500 Descending FlightAware ADS-B
05:33AM 29.8193 -94.0759 281° West 302 348 21,700 -1,500 Descending FlightAware ADS-B
05:34AM 29.8273 -94.1216 281° West 297 342 20,900 -1,500 Descending FlightAware ADS-B
05:34AM 29.8354 -94.1678 281° West 290 334 20,200 -1,680 Descending FlightAware ADS-B
05:35AM 29.8432 -94.2117 282° West 293 337 19,300 -1,920 Descending FlightAware ADS-B
05:35AM 29.8490 -94.2459 281° West 295 339 18,600 -1,860 Descending FlightAware ADS-B
05:36AM 29.8570 -94.2919 281° West 295 339 17,700 -1,680 Descending FlightAware ADS-B
05:36AM 29.8651 -94.3385 281° West 295 339 16,900 -1,680 Descending FlightAware ADS-B
05:37AM 29.8732 -94.3848 281° West 295 339 16,000 -1,800 Descending FlightAware ADS-B
05:37AM 29.8804 -94.4268 281° West 294 338 15,200 -1,680 Descending FlightAware ADS-B
05:38AM 29.8876 -94.4681 281° West 293 337 14,500 -1,620 Descending FlightAware ADS-B
05:38AM 29.8957 -94.5144 281° West 291 335 13,700 -1,500 Descending FlightAware ADS-B
05:39AM 29.9036 -94.5606 281° West 288 331 13,000 -1,500 Descending FlightAware ADS-B
05:39AM 29.9104 -94.6006 281° West 285 328 12,300 -1,620 Descending FlightAware ADS-B
05:40AM 29.9181 -94.6454 281° West 283 326 11,500 -1,620 Descending FlightAware ADS-B
05:40AM 29.9247 -94.6849 281° West 283 326 10,800 -1,380 Descending FlightAware ADS-B
05:41AM 29.9323 -94.7293 281° West 273 314 10,200 -1,080 Descending FlightAware ADS-B
05:41AM 29.9360 -94.7507 281° West 270 311 10,000 -1,200 Descending FlightAware ADS-B
05:41AM 29.9398 -94.7726 281° West 268 308 9,600 -1,380 Descending FlightAware ADS-B
05:41AM 29.9433 -94.7936 281° West 268 308 9,300 -1,440 Descending FlightAware ADS-B
05:42AM 29.9469 -94.8147 281° West 268 308 8,900 -1,440 Descending FlightAware ADS-B
05:42AM 29.9494 -94.8295 281° West 268 308 8,700 -1,440 Descending FlightAware ADS-B
05:42AM 29.9530 -94.8510 281° West 268 308 8,300 -1,500 Descending FlightAware ADS-B
05:42AM 29.9563 -94.8701 281° West 268 308 8,000 -1,020 Descending FlightAware ADS-B
05:42AM 29.9599 -94.8916 281° West 262 302 7,800 -780 Descending FlightAware ADS-B
05:43AM 29.9634 -94.9120 281° West 254 292 7,600 -840 Descending FlightAware ADS-B
05:43AM 29.9667 -94.9318 281° West 242 278 7,400 -1,080 Descending FlightAware ADS-B
05:43AM 29.9694 -94.9479 281° West 237 273 7,100 -1,320 Descending FlightAware ADS-B
05:43AM 29.9714 -94.9599 281° West 235 270 6,900 -1,680 Descending FlightAware ADS-B
05:44AM 29.9745 -94.9787 281° West 233 268 6,400 -1,800 Descending FlightAware ADS-B
05:44AM 29.9755 -94.9847 281° West 233 268 6,300 -1,500 Descending FlightAware ADS-B
05:44AM 29.9760 -94.9889 278° West 233 268 6,200 -1,800 Descending FlightAware ADS-B
05:44AM 29.9765 -94.9970 274° West 232 267 6,000 -1,500 Descending FlightAware ADS-B
05:44AM 29.9770 -95.0082 273° West 228 262 5,800 -1,200 Descending FlightAware ADS-B
05:44AM 29.9778 -95.0213 274° West 222 255 5,600 -1,200 Descending FlightAware ADS-B
05:44AM 29.9780 -95.0323 271° West 216 249 5,400 -1,200 Descending FlightAware ADS-B
05:45AM 29.9778 -95.0496 269° West 211 243 5,100 -1,200 Descending FlightAware ADS-B
05:45AM 29.9776 -95.0615 269° West 205 236 4,900 -1,200 Descending FlightAware ADS-B
05:45AM 29.9777 -95.0782 270° West 195 224 4,600 -1,200 Descending FlightAware ADS-B
05:45AM 29.9777 -95.0933 270° West 184 212 4,300 -1,560 Descending FlightAware ADS-B
05:45AM 29.9777 -95.1049 270° West 179 206 3,900 -1,980 Descending FlightAware ADS-B
05:46AM 29.9776 -95.1195 270° West 181 208 3,400 -1,980 Descending FlightAware ADS-B
05:46AM 29.9776 -95.1343 270° West 183 211 2,900 -1,680 Descending FlightAware ADS-B
05:46AM 29.9776 -95.1484 270° West 182 209 2,600 -1,200 Descending FlightAware ADS-B
05:46AM 29.9777 -95.1591 271° West 180 207 2,400 -900 Descending FlightAware ADS-B
05:47AM 29.9778 -95.1684 271° West 181 208 2,300 -900 Descending FlightAware ADS-B
05:47AM 29.9778 -95.1792 270° West 184 212 2,100 -1,140 Descending FlightAware ADS-B
05:47AM 29.9777 -95.1902 269° West 185 213 1,900 -960 Descending FlightAware ADS-B
05:47AM 29.9777 -95.2101 270° West 182 209 1,600 -1,080 Descending FlightAware ADS-B
05:48AM 29.9778 -95.2290 270° West 168 193 1,200 -1,020 Descending FlightAware ADS-B
05:48AM 29.9778 -95.2379 270° West 163 188 1,100 -720 Descending FlightAware ADS-B
05:48AM 29.9777 -95.2437 269° West 158 182 1,000 -840 Descending FlightAware ADS-B
05:48AM 29.9777 -95.2566 270° West 157 181 800 -840 Descending FlightAware ADS-B
05:48AM 29.9777 -95.2625 270° West 157 181 700 -840 Descending FlightAware ADS-B
05:48AM 29.9776 -95.2691 269° West 156 180 600 -1,020 Descending FlightAware ADS-B
05:49AM 29.9775 -95.2768 269° West 156 180 400 -960 Descending FlightAware ADS-B
05:49AM 29.9776 -95.2898 271° West 155 178 200 -720 Descending FlightAware ADS-B
05:49AM 29.9776 -95.2991 270° West 146 168 100 -540 Descending FlightAware ADS-B